Time;durP1;ratioP1;P1;durP2;ratioP2;P2;SDS_P1;SDS_P2;PMS_P1;PMS_P2;Temp;Humidity;BMP_temperature;BMP_pressure;BME280_temperature;BME280_humidity;BME280_pressure;Samples;Min_cycle;Max_cycle;Signal;HPM_P1;HPM_P2
2023/06/09 00:04:13;;;;;;;4.57;3.28;;;;;;;;;;10450663;28;20029;-57
2023/06/09 00:09:14;;;;;;;3.78;3.38;;;;;;;;;;10449891;28;20025;-59
2023/06/09 00:14:14;;;;;;;7.65;3.50;;;;;;;;;;10449702;28;20111;-58
2023/06/09 00:19:19;;;;;;;3.72;2.70;;;;;;;;;;10449899;28;20197;-58
2023/06/09 00:24:22;;;;;;;5.68;3.13;;;;;;;;;;10450477;28;20033;-58
2023/06/09 00:29:23;;;;;;;7.75;3.22;;;;;;;;;;10449953;28;20384;-58
2023/06/09 00:34:24;;;;;;;5.22;3.53;;;;;;;;;;10448645;28;20128;-58
2023/06/09 00:39:25;;;;;;;3.65;3.25;;;;;;;;;;10447630;28;20051;-58
2023/06/09 00:44:26;;;;;;;5.15;3.28;;;;;;;;;;10447239;28;20389;-58
2023/06/09 00:49:26;;;;;;;6.93;3.80;;;;;;;;;;10449282;28;20118;-57
2023/06/09 00:54:28;;;;;;;4.60;3.42;;;;;;;;;;10448812;28;20033;-57
2023/06/09 00:59:29;;;;;;;10.02;3.25;;;;;;;;;;10448207;28;20104;-58
2023/06/09 01:04:32;;;;;;;3.95;3.53;;;;;;;;;;10437423;28;20098;-58
2023/06/09 01:09:41;;;;;;;5.07;3.60;;;;;;;;;;10427800;28;20025;-58
2023/06/09 01:14:56;;;;;;;3.97;3.58;;;;;;;;;;10421956;28;20116;-58
2023/06/09 01:19:58;;;;;;;6.25;3.70;;;;;;;;;;10392868;28;20061;-57
2023/06/09 01:25:25;;;;;;;4.38;3.28;;;;;;;;;;10404647;28;20053;-59
2023/06/09 01:30:32;;;;;;;4.25;3.67;;;;;;;;;;10418632;28;20100;-57
2023/06/09 01:35:33;;;;;;;4.15;3.75;;;;;;;;;;10443167;28;20032;-57
2023/06/09 01:40:35;;;;;;;5.40;3.55;;;;;;;;;;10423094;28;20119;-57
2023/06/09 01:45:36;;;;;;;5.68;3.80;;;;;;;;;;10447757;28;20106;-57
2023/06/09 01:50:53;;;;;;;4.38;3.60;;;;;;;;;;10444504;28;20465;-57
2023/06/09 01:56:25;;;;;;;4.13;3.70;;;;;;;;;;10443667;28;20024;-57
2023/06/09 02:01:27;;;;;;;6.05;3.78;;;;;;;;;;10411900;28;20357;-57
2023/06/09 02:06:28;;;;;;;4.22;3.60;;;;;;;;;;10432789;28;20464;-57
2023/06/09 02:11:28;;;;;;;6.40;4.13;;;;;;;;;;10446252;28;20049;-57
2023/06/09 02:16:29;;;;;;;6.78;4.47;;;;;;;;;;10445944;28;20032;-58
2023/06/09 02:21:30;;;;;;;9.43;4.10;;;;;;;;;;10446747;28;20033;-58
2023/06/09 02:26:32;;;;;;;5.43;4.30;;;;;;;;;;10446040;28;20033;-57
2023/06/09 02:31:32;;;;;;;5.05;3.92;;;;;;;;;;10446276;28;20405;-57
2023/06/09 02:36:37;;;;;;;6.60;4.03;;;;;;;;;;10445426;28;20029;-58
2023/06/09 02:41:37;;;;;;;5.68;4.63;;;;;;;;;;10446735;28;20476;-57
2023/06/09 02:46:40;;;;;;;4.90;4.07;;;;;;;;;;10445948;28;20032;-57
2023/06/09 02:51:40;;;;;;;4.35;3.63;;;;;;;;;;10433359;28;20351;-57
2023/06/09 02:56:41;;;;;;;6.95;3.88;;;;;;;;;;10445238;28;20288;-57
2023/06/09 03:01:42;;;;;;;6.63;4.00;;;;;;;;;;10438662;28;20067;-56
2023/06/09 03:06:43;;;;;;;4.40;3.97;;;;;;;;;;10429813;28;20017;-56
2023/06/09 03:11:44;;;;;;;4.13;3.72;;;;;;;;;;10440532;28;20519;-56
2023/06/09 03:16:45;;;;;;;4.70;3.90;;;;;;;;;;10447256;28;20095;-57
2023/06/09 03:21:46;;;;;;;4.88;4.00;;;;;;;;;;10428845;28;20112;-57
2023/06/09 03:26:47;;;;;;;5.63;4.18;;;;;;;;;;10452483;28;20104;-58
2023/06/09 03:31:48;;;;;;;6.35;3.65;;;;;;;;;;10440830;28;20057;-57
2023/06/09 03:36:48;;;;;;;3.55;3.25;;;;;;;;;;10427060;28;20025;-59
2023/06/09 03:41:53;;;;;;;5.03;3.60;;;;;;;;;;10451927;28;20029;-57
2023/06/09 03:46:54;;;;;;;7.00;3.78;;;;;;;;;;10438603;28;20021;-58
2023/06/09 03:51:55;;;;;;;4.05;3.67;;;;;;;;;;10426574;28;20021;-58
2023/06/09 03:56:55;;;;;;;10.02;3.83;;;;;;;;;;10451939;28;20025;-57
2023/06/09 04:01:56;;;;;;;5.38;3.80;;;;;;;;;;10438512;28;20419;-57
2023/06/09 04:06:58;;;;;;;4.43;3.67;;;;;;;;;;10450415;28;20044;-57
2023/06/09 04:12:00;;;;;;;6.90;3.97;;;;;;;;;;10447141;28;20029;-57
2023/06/09 04:17:02;;;;;;;7.45;4.00;;;;;;;;;;10431999;28;20489;-57
2023/06/09 04:22:07;;;;;;;4.53;3.47;;;;;;;;;;10447845;28;20049;-57
2023/06/09 04:27:08;;;;;;;5.28;3.10;;;;;;;;;;10429073;28;20247;-57
2023/06/09 04:32:11;;;;;;;4.43;3.30;;;;;;;;;;10425315;28;20167;-57
2023/06/09 04:37:12;;;;;;;6.40;3.50;;;;;;;;;;10436951;28;20041;-57
2023/06/09 04:42:14;;;;;;;4.25;3.85;;;;;;;;;;10448851;28;20065;-57
2023/06/09 04:47:17;;;;;;;12.73;4.00;;;;;;;;;;10449912;28;20025;-59
2023/06/09 04:52:19;;;;;;;7.13;4.00;;;;;;;;;;10449742;28;20362;-57
2023/06/09 04:57:19;;;;;;;5.72;3.50;;;;;;;;;;10423944;28;20029;-58
2023/06/09 05:02:21;;;;;;;5.55;4.32;;;;;;;;;;10437075;28;20033;-57
2023/06/09 05:07:21;;;;;;;5.28;4.28;;;;;;;;;;10424756;28;20176;-58
2023/06/09 05:12:22;;;;;;;4.57;4.13;;;;;;;;;;10448162;28;20025;-57
2023/06/09 05:17:22;;;;;;;6.05;4.18;;;;;;;;;;10430854;28;20025;-58
2023/06/09 05:22:23;;;;;;;6.72;4.57;;;;;;;;;;10439463;28;20021;-59
2023/06/09 05:27:23;;;;;;;9.55;4.32;;;;;;;;;;10440545;28;20029;-59
2023/06/09 05:32:24;;;;;;;9.18;4.38;;;;;;;;;;10437928;28;20044;-59
2023/06/09 05:37:25;;;;;;;6.32;4.00;;;;;;;;;;10439615;28;20025;-58
2023/06/09 05:42:26;;;;;;;5.30;3.83;;;;;;;;;;10433790;28;20043;-59
2023/06/09 05:47:27;;;;;;;10.98;4.35;;;;;;;;;;10431239;28;20385;-56
2023/06/09 05:52:28;;;;;;;5.57;3.88;;;;;;;;;;10437999;28;20030;-57
2023/06/09 05:57:29;;;;;;;7.53;3.35;;;;;;;;;;10421322;28;20044;-56
2023/06/09 06:02:30;;;;;;;4.40;4.00;;;;;;;;;;10414354;28;20213;-57
2023/06/09 06:07:31;;;;;;;7.13;3.63;;;;;;;;;;10424980;28;20114;-57
2023/06/09 06:12:32;;;;;;;7.57;4.78;;;;;;;;;;10438532;28;20037;-56
2023/06/09 06:17:33;;;;;;;8.18;3.38;;;;;;;;;;10427176;28;20480;-57
2023/06/09 06:22:34;;;;;;;9.02;3.47;;;;;;;;;;10436083;28;20030;-57
2023/06/09 06:27:35;;;;;;;5.65;3.22;;;;;;;;;;10421799;28;20036;-57
2023/06/09 06:32:38;;;;;;;5.50;3.53;;;;;;;;;;10421773;28;20095;-57
2023/06/09 06:37:38;;;;;;;3.92;2.88;;;;;;;;;;10439357;28;20028;-58
2023/06/09 06:42:40;;;;;;;3.85;2.90;;;;;;;;;;10444324;28;20071;-56
2023/06/09 06:47:43;;;;;;;5.03;3.45;;;;;;;;;;10429397;28;20179;-55
2023/06/09 06:52:44;;;;;;;3.65;3.28;;;;;;;;;;10449753;28;20040;-56
2023/06/09 06:57:45;;;;;;;3.88;3.50;;;;;;;;;;10444054;28;20263;-55
2023/06/09 07:02:47;;;;;;;5.57;3.80;;;;;;;;;;10453619;28;21093;-55
2023/06/09 07:07:47;;;;;;;7.40;3.90;;;;;;;;;;10439436;28;20052;-54
2023/06/09 07:12:48;;;;;;;9.30;4.30;;;;;;;;;;10440859;28;20036;-56
2023/06/09 07:17:48;;;;;;;14.27;5.57;;;;;;;;;;10445125;28;20040;-55
2023/06/09 07:22:51;;;;;;;8.43;5.47;;;;;;;;;;10441178;28;20029;-53
2023/06/09 07:27:52;;;;;;;7.32;5.45;;;;;;;;;;10437477;28;20028;-55
2023/06/09 07:32:53;;;;;;;11.75;6.35;;;;;;;;;;10430610;28;20037;-55
2023/06/09 07:37:53;;;;;;;6.95;6.25;;;;;;;;;;10437114;28;20029;-55
2023/06/09 07:42:54;;;;;;;10.90;6.00;;;;;;;;;;10443912;28;20024;-56
2023/06/09 07:47:55;;;;;;;6.18;5.57;;;;;;;;;;10431729;28;20030;-55
2023/06/09 07:52:55;;;;;;;8.80;5.85;;;;;;;;;;10431090;28;20151;-55
2023/06/09 07:57:56;;;;;;;8.15;6.15;;;;;;;;;;10438503;28;20021;-55
2023/06/09 08:03:02;;;;;;;8.30;6.47;;;;;;;;;;10450502;28;20021;-56
2023/06/09 08:08:03;;;;;;;30.38;7.85;;;;;;;;;;10451254;28;20082;-54
2023/06/09 08:13:03;;;;;;;18.02;7.00;;;;;;;;;;10447673;28;20080;-54
2023/06/09 08:18:04;;;;;;;9.15;5.85;;;;;;;;;;10421677;28;20388;-55
2023/06/09 08:23:07;;;;;;;7.45;5.25;;;;;;;;;;10437772;28;20040;-55
2023/06/09 08:28:08;;;;;;;7.30;5.47;;;;;;;;;;10448957;28;20287;-56
2023/06/09 08:33:08;;;;;;;13.57;5.93;;;;;;;;;;10427982;28;20178;-55
2023/06/09 08:38:09;;;;;;;31.77;8.10;;;;;;;;;;10435670;28;20032;-55
2023/06/09 08:43:09;;;;;;;23.45;6.63;;;;;;;;;;10449475;28;20025;-57
2023/06/09 08:48:17;;;;;;;16.40;6.65;;;;;;;;;;10428620;28;20037;-56
2023/06/09 08:53:19;;;;;;;7.07;6.10;;;;;;;;;;10445508;28;20122;-57
2023/06/09 08:58:21;;;;;;;10.48;5.97;;;;;;;;;;10441064;28;20056;-57
2023/06/09 09:03:22;;;;;;;11.40;5.85;;;;;;;;;;10442647;28;20029;-57
2023/06/09 09:08:23;;;;;;;13.43;6.78;;;;;;;;;;10435243;28;20033;-57
2023/06/09 09:13:31;;;;;;;11.93;7.25;;;;;;;;;;10444829;28;20025;-54
2023/06/09 09:18:34;;;;;;;6.75;6.05;;;;;;;;;;10435394;28;20496;-55
2023/06/09 09:23:35;;;;;;;7.88;6.57;;;;;;;;;;10447470;28;20040;-55
2023/06/09 09:28:40;;;;;;;11.18;6.78;;;;;;;;;;10435177;28;20032;-59
2023/06/09 09:33:49;;;;;;;7.40;6.55;;;;;;;;;;10435763;28;20049;-56
2023/06/09 09:38:49;;;;;;;8.07;6.38;;;;;;;;;;10446362;28;20106;-56
2023/06/09 09:43:56;;;;;;;16.75;5.65;;;;;;;;;;10447935;28;20071;-57
2023/06/09 09:49:00;;;;;;;8.88;6.25;;;;;;;;;;10433732;28;20033;-55
2023/06/09 09:54:01;;;;;;;8.65;5.30;;;;;;;;;;10434572;28;20044;-57
2023/06/09 09:59:02;;;;;;;8.57;5.75;;;;;;;;;;10417446;28;20432;-57
2023/06/09 10:04:03;;;;;;;10.60;5.80;;;;;;;;;;10447632;28;20025;-56
2023/06/09 10:09:04;;;;;;;9.07;5.43;;;;;;;;;;10433844;28;20021;-57
2023/06/09 10:14:05;;;;;;;6.78;4.60;;;;;;;;;;10405054;28;20389;-57
2023/06/09 10:19:06;;;;;;;6.10;5.15;;;;;;;;;;10441069;28;20032;-54
2023/06/09 10:24:08;;;;;;;7.60;5.95;;;;;;;;;;10432343;28;20549;-55
2023/06/09 10:29:09;;;;;;;5.75;4.90;;;;;;;;;;10446109;28;20037;-55
2023/06/09 10:34:13;;;;;;;8.55;4.90;;;;;;;;;;10446065;28;20049;-55
2023/06/09 10:39:19;;;;;;;8.40;5.97;;;;;;;;;;10441667;28;20033;-55
2023/06/09 10:44:41;;;;;;;8.82;6.22;;;;;;;;;;10438092;28;20170;-55
2023/06/09 10:49:42;;;;;;;6.75;5.65;;;;;;;;;;10444739;28;20024;-55
2023/06/09 10:55:11;;;;;;;7.05;5.47;;;;;;;;;;10433327;28;20091;-55
2023/06/09 11:00:14;;;;;;;7.00;5.07;;;;;;;;;;10445346;28;20484;-56
2023/06/09 11:05:17;;;;;;;11.38;6.80;;;;;;;;;;10437585;28;20195;-56
2023/06/09 11:10:17;;;;;;;10.82;6.72;;;;;;;;;;10433015;28;20033;-57
2023/06/09 11:15:18;;;;;;;8.50;6.13;;;;;;;;;;10437073;28;20047;-57
2023/06/09 11:20:23;;;;;;;11.35;6.28;;;;;;;;;;10432652;28;20993;-58
2023/06/09 11:25:26;;;;;;;7.03;5.90;;;;;;;;;;10445175;28;20025;-56
2023/06/09 11:30:31;;;;;;;8.98;6.47;;;;;;;;;;10450341;28;20036;-55
2023/06/09 11:35:31;;;;;;;8.75;7.47;;;;;;;;;;10451280;28;20072;-57
2023/06/09 11:40:38;;;;;;;23.90;7.10;;;;;;;;;;10453105;28;20075;-58
2023/06/09 11:45:39;;;;;;;14.13;7.45;;;;;;;;;;10440282;28;20507;-56
2023/06/09 11:50:43;;;;;;;10.73;6.55;;;;;;;;;;10440837;28;20354;-55
2023/06/09 11:55:45;;;;;;;15.27;7.78;;;;;;;;;;10452366;28;20431;-55
2023/06/09 12:00:47;;;;;;;10.90;8.27;;;;;;;;;;10452351;28;20036;-54
2023/06/09 12:05:50;;;;;;;12.38;8.00;;;;;;;;;;10434112;28;20460;-57
2023/06/09 12:10:50;;;;;;;12.00;6.88;;;;;;;;;;10451408;28;20053;-57
2023/06/09 12:15:52;;;;;;;11.18;6.93;;;;;;;;;;10440937;28;20025;-56
2023/06/09 12:20:53;;;;;;;8.13;5.60;;;;;;;;;;10419376;28;20061;-57
2023/06/09 12:25:54;;;;;;;6.20;5.22;;;;;;;;;;10425528;28;20025;-57
2023/06/09 12:31:09;;;;;;;5.78;4.97;;;;;;;;;;10414187;28;20041;-57
2023/06/09 12:36:11;;;;;;;7.13;4.40;;;;;;;;;;10438106;28;20091;-57
2023/06/09 12:41:14;;;;;;;4.65;4.20;;;;;;;;;;10444665;28;20656;-57
2023/06/09 12:46:32;;;;;;;5.20;4.50;;;;;;;;;;10448336;28;20456;-57
2023/06/09 12:51:39;;;;;;;5.50;4.45;;;;;;;;;;10437163;28;20039;-57
2023/06/09 12:56:40;;;;;;;6.05;4.25;;;;;;;;;;10437126;28;20049;-57
2023/06/09 13:01:41;;;;;;;5.70;4.35;;;;;;;;;;10441087;28;20025;-57
2023/06/09 13:06:42;;;;;;;5.28;3.75;;;;;;;;;;10430046;28;20460;-57
2023/06/09 13:11:42;;;;;;;5.00;4.20;;;;;;;;;;10436236;28;20029;-56
2023/06/09 13:16:43;;;;;;;6.00;4.00;;;;;;;;;;10432156;28;20033;-57
2023/06/09 13:21:44;;;;;;;4.35;3.92;;;;;;;;;;10422939;28;20028;-57
2023/06/09 13:26:46;;;;;;;6.70;4.30;;;;;;;;;;10447416;28;20392;-56
2023/06/09 13:31:47;;;;;;;5.32;4.82;;;;;;;;;;10466203;23;20606;-61
2023/06/09 13:36:47;;;;;;;6.43;4.95;;;;;;;;;;10438043;28;20108;-61
2023/06/09 13:41:48;;;;;;;6.28;4.32;;;;;;;;;;10440075;28;20481;-60
2023/06/09 13:46:48;;;;;;;6.60;4.57;;;;;;;;;;10435845;28;20091;-61
2023/06/09 13:51:49;;;;;;;8.23;4.82;;;;;;;;;;10439778;28;20385;-61
2023/06/09 13:56:51;;;;;;;4.90;4.40;;;;;;;;;;10436058;28;20057;-61
2023/06/09 14:01:53;;;;;;;5.35;4.63;;;;;;;;;;10436818;28;20024;-69
2023/06/09 14:06:54;;;;;;;6.60;4.65;;;;;;;;;;10451401;28;20026;-60
2023/06/09 14:11:54;;;;;;;6.03;4.75;;;;;;;;;;10450442;28;20033;-60
2023/06/09 14:16:57;;;;;;;7.10;4.82;;;;;;;;;;10454955;28;20039;-60
2023/06/09 14:21:57;;;;;;;5.65;4.40;;;;;;;;;;10451169;28;20183;-67
2023/06/09 14:26:59;;;;;;;6.00;4.05;;;;;;;;;;10450026;28;20199;-69
2023/06/09 14:32:00;;;;;;;6.60;4.97;;;;;;;;;;10448899;28;20098;-69
2023/06/09 14:37:00;;;;;;;5.45;4.47;;;;;;;;;;10450365;28;20377;-67
2023/06/09 14:42:01;;;;;;;7.78;4.68;;;;;;;;;;10449533;28;20480;-65
2023/06/09 14:47:02;;;;;;;6.28;5.13;;;;;;;;;;10450570;28;20040;-66
2023/06/09 14:52:03;;;;;;;5.68;4.45;;;;;;;;;;10450224;28;20024;-69
2023/06/09 14:57:04;;;;;;;6.00;5.22;;;;;;;;;;10437563;28;20195;-69
2023/06/09 15:02:05;;;;;;;6.70;4.93;;;;;;;;;;10449563;28;20028;-69
2023/06/09 15:07:10;;;;;;;7.15;4.88;;;;;;;;;;10447684;28;20036;-64
2023/06/09 15:12:10;;;;;;;6.43;5.80;;;;;;;;;;10429618;28;20227;-70
2023/06/09 15:17:11;;;;;;;6.15;5.15;;;;;;;;;;10443575;28;20049;-67
2023/06/09 15:22:12;;;;;;;8.38;5.15;;;;;;;;;;10449391;28;20033;-69
2023/06/09 15:27:12;;;;;;;5.93;5.05;;;;;;;;;;10455861;28;20021;-70
2023/06/09 15:32:14;;;;;;;8.23;5.05;;;;;;;;;;10442512;28;20041;-69
2023/06/09 15:37:15;;;;;;;6.78;5.18;;;;;;;;;;10456259;28;20032;-69
2023/06/09 15:42:16;;;;;;;5.65;4.88;;;;;;;;;;10456672;28;20028;-69
2023/06/09 15:47:16;;;;;;;5.90;5.15;;;;;;;;;;10456683;28;20048;-70
2023/06/09 15:52:17;;;;;;;8.95;5.20;;;;;;;;;;10454736;28;20035;-67
2023/06/09 15:57:17;;;;;;;7.03;5.30;;;;;;;;;;10456352;28;20060;-70
2023/06/09 16:02:18;;;;;;;6.63;4.78;;;;;;;;;;10442484;28;20227;-68
2023/06/09 16:07:19;;;;;;;8.40;5.00;;;;;;;;;;10448432;28;20028;-67
2023/06/09 16:12:19;;;;;;;8.32;4.82;;;;;;;;;;10461910;28;20033;-68
2023/06/09 16:17:20;;;;;;;6.32;4.97;;;;;;;;;;10459076;28;20090;-67
2023/06/09 16:22:20;;;;;;;5.50;4.72;;;;;;;;;;10455106;28;20029;-70
2023/06/09 16:27:21;;;;;;;13.90;5.57;;;;;;;;;;10442859;28;20040;-67
2023/06/09 16:32:21;;;;;;;6.38;4.72;;;;;;;;;;10449948;28;20053;-68
2023/06/09 16:37:22;;;;;;;6.70;5.40;;;;;;;;;;10454190;28;20025;-68
2023/06/09 16:42:22;;;;;;;6.38;5.03;;;;;;;;;;10453043;28;20485;-74
2023/06/09 16:47:23;;;;;;;11.68;4.90;;;;;;;;;;10453938;28;20017;-62
2023/06/09 16:52:24;;;;;;;9.45;4.95;;;;;;;;;;10452543;28;20480;-61
2023/06/09 16:57:24;;;;;;;13.15;4.95;;;;;;;;;;10452053;28;20033;-59
2023/06/09 17:02:25;;;;;;;8.82;6.30;;;;;;;;;;10449382;28;20032;-59
2023/06/09 17:07:27;;;;;;;9.43;6.18;;;;;;;;;;10452177;28;20033;-59
2023/06/09 17:12:28;;;;;;;15.20;6.10;;;;;;;;;;10452074;28;20411;-58
2023/06/09 17:17:28;;;;;;;11.77;6.45;;;;;;;;;;10451897;28;20025;-59
2023/06/09 17:22:29;;;;;;;12.05;6.00;;;;;;;;;;10418636;28;20025;-59
2023/06/09 17:27:29;;;;;;;13.75;6.45;;;;;;;;;;10421550;28;20036;-59
2023/06/09 17:32:31;;;;;;;6.72;6.03;;;;;;;;;;10421549;28;20059;-59
2023/06/09 17:37:31;;;;;;;8.48;6.63;;;;;;;;;;10431793;28;20085;-59
2023/06/09 17:42:32;;;;;;;9.52;6.07;;;;;;;;;;10440614;28;20534;-58
2023/06/09 17:47:35;;;;;;;7.68;6.10;;;;;;;;;;10443369;28;20028;-58
2023/06/09 17:52:35;;;;;;;8.30;5.53;;;;;;;;;;10448029;28;20028;-58
2023/06/09 17:57:37;;;;;;;8.30;4.90;;;;;;;;;;10444929;28;20495;-59
2023/06/09 18:02:38;;;;;;;6.30;5.15;;;;;;;;;;10447745;28;20025;-59
2023/06/09 18:07:38;;;;;;;7.55;5.38;;;;;;;;;;10445034;28;20036;-58
2023/06/09 18:12:39;;;;;;;7.78;5.10;;;;;;;;;;10442376;28;20036;-58
2023/06/09 18:17:40;;;;;;;5.55;4.85;;;;;;;;;;10435152;28;20033;-58
2023/06/09 18:22:42;;;;;;;7.57;5.28;;;;;;;;;;10449493;28;20112;-58
2023/06/09 18:27:43;;;;;;;6.18;4.38;;;;;;;;;;10443667;28;20566;-58
2023/06/09 18:32:43;;;;;;;10.25;5.00;;;;;;;;;;10434015;28;20044;-58
2023/06/09 18:37:45;;;;;;;5.72;5.13;;;;;;;;;;10447026;28;20033;-58
2023/06/09 18:42:45;;;;;;;8.15;5.05;;;;;;;;;;10452343;28;20055;-58
2023/06/09 18:47:46;;;;;;;8.82;5.30;;;;;;;;;;10460007;28;20025;-59
2023/06/09 18:52:48;;;;;;;11.55;5.07;;;;;;;;;;10460928;28;20465;-58
2023/06/09 18:57:48;;;;;;;13.27;4.70;;;;;;;;;;10459061;28;20427;-60
2023/06/09 19:02:49;;;;;;;4.97;4.35;;;;;;;;;;10448625;28;20110;-58
2023/06/09 19:07:50;;;;;;;7.25;4.63;;;;;;;;;;10462531;28;20182;-59
2023/06/09 19:12:50;;;;;;;6.63;5.15;;;;;;;;;;10460750;28;20029;-59
2023/06/09 19:17:57;;;;;;;10.40;4.53;;;;;;;;;;10451789;28;20550;-59
2023/06/09 19:22:57;;;;;;;8.98;4.15;;;;;;;;;;10454231;28;20104;-58
2023/06/09 19:27:58;;;;;;;7.75;4.47;;;;;;;;;;10454131;28;20032;-58
2023/06/09 19:32:58;;;;;;;6.75;4.10;;;;;;;;;;10457317;28;20041;-58
2023/06/09 19:37:59;;;;;;;7.88;4.13;;;;;;;;;;10458273;28;20036;-58
2023/06/09 19:42:59;;;;;;;6.82;3.85;;;;;;;;;;10449421;28;20025;-59
2023/06/09 19:48:00;;;;;;;6.57;4.35;;;;;;;;;;10457048;28;20041;-59
2023/06/09 19:53:01;;;;;;;9.15;4.28;;;;;;;;;;10454709;28;20024;-59
2023/06/09 19:58:03;;;;;;;19.95;5.45;;;;;;;;;;10455735;28;20037;-59
2023/06/09 20:03:03;;;;;;;26.50;6.90;;;;;;;;;;10448597;28;20029;-60
2023/06/09 20:08:04;;;;;;;33.17;6.63;;;;;;;;;;10455323;28;20473;-60
2023/06/09 20:13:05;;;;;;;14.77;5.63;;;;;;;;;;10455991;28;20056;-60
2023/06/09 20:18:06;;;;;;;22.60;6.57;;;;;;;;;;10448588;28;20039;-64
2023/06/09 20:23:07;;;;;;;19.13;5.75;;;;;;;;;;10427158;28;20053;-65
2023/06/09 20:28:07;;;;;;;16.10;4.95;;;;;;;;;;10449288;28;20118;-70
2023/06/09 20:33:08;;;;;;;31.00;5.05;;;;;;;;;;10446230;28;20064;-60
2023/06/09 20:38:08;;;;;;;18.00;4.38;;;;;;;;;;10449234;28;20048;-60
2023/06/09 20:43:11;;;;;;;6.63;3.97;;;;;;;;;;10450816;28;20029;-59
2023/06/09 20:48:12;;;;;;;21.63;4.20;;;;;;;;;;10449341;28;20044;-59
2023/06/09 20:53:16;;;;;;;19.33;4.18;;;;;;;;;;10450149;28;20372;-58
2023/06/09 20:58:17;;;;;;;9.68;3.58;;;;;;;;;;10448530;28;20029;-59
2023/06/09 21:03:21;;;;;;;10.07;3.22;;;;;;;;;;10445582;28;20033;-58
2023/06/09 21:08:22;;;;;;;10.60;3.38;;;;;;;;;;10450521;28;20048;-59
2023/06/09 21:13:23;;;;;;;9.32;3.58;;;;;;;;;;10451672;28;20032;-60
2023/06/09 21:18:23;;;;;;;13.10;3.38;;;;;;;;;;10446536;28;20052;-68
2023/06/09 21:23:24;;;;;;;6.40;2.97;;;;;;;;;;10443334;28;20037;-65
2023/06/09 21:28:25;;;;;;;10.57;3.13;;;;;;;;;;10450204;28;20036;-62
2023/06/09 21:33:27;;;;;;;10.45;3.50;;;;;;;;;;10442379;28;20637;-66
2023/06/09 21:38:27;;;;;;;7.75;3.25;;;;;;;;;;10450578;28;20033;-69
2023/06/09 21:43:28;;;;;;;6.13;3.28;;;;;;;;;;10448115;28;20029;-69
2023/06/09 21:48:29;;;;;;;12.57;3.10;;;;;;;;;;10437760;28;20782;-65
2023/06/09 21:53:29;;;;;;;7.20;3.03;;;;;;;;;;10448110;28;20481;-68
2023/06/09 21:58:30;;;;;;;5.00;3.20;;;;;;;;;;10448139;28;20562;-68
2023/06/09 22:03:30;;;;;;;5.13;3.25;;;;;;;;;;10447243;28;20074;-61
2023/06/09 22:08:31;;;;;;;12.35;3.67;;;;;;;;;;10447782;28;20040;-69
2023/06/09 22:13:32;;;;;;;7.53;2.95;;;;;;;;;;10462572;28;20036;-66
2023/06/09 22:18:32;;;;;;;6.65;2.90;;;;;;;;;;10450654;28;20032;-68
2023/06/09 22:23:33;;;;;;;6.13;2.97;;;;;;;;;;10449342;28;20404;-68
2023/06/09 22:28:34;;;;;;;6.85;3.10;;;;;;;;;;10448897;28;20033;-68
2023/06/09 22:33:36;;;;;;;6.82;2.85;;;;;;;;;;10447568;28;20124;-69
2023/06/09 22:38:36;;;;;;;5.40;2.70;;;;;;;;;;10433520;28;20041;-65
2023/06/09 22:43:37;;;;;;;6.32;2.97;;;;;;;;;;10448282;28;20139;-62
2023/06/09 22:48:38;;;;;;;6.03;2.88;;;;;;;;;;10449707;28;20036;-69
2023/06/09 22:53:43;;;;;;;7.25;2.72;;;;;;;;;;10448966;28;20401;-61
2023/06/09 22:58:43;;;;;;;3.05;2.75;;;;;;;;;;10433936;28;20025;-61
2023/06/09 23:03:44;;;;;;;3.30;2.60;;;;;;;;;;10447970;28;20029;-68
2023/06/09 23:08:45;;;;;;;4.15;2.70;;;;;;;;;;10447329;28;20037;-65
2023/06/09 23:13:45;;;;;;;4.53;2.45;;;;;;;;;;10445519;28;20603;-62
2023/06/09 23:18:46;;;;;;;4.70;2.88;;;;;;;;;;10448081;28;20029;-61
2023/06/09 23:23:49;;;;;;;4.85;3.00;;;;;;;;;;10450815;28;20029;-61
2023/06/09 23:28:50;;;;;;;4.40;2.50;;;;;;;;;;10455239;28;20036;-60
2023/06/09 23:33:50;;;;;;;4.68;3.00;;;;;;;;;;10455473;28;20045;-71
2023/06/09 23:38:51;;;;;;;3.33;2.90;;;;;;;;;;10457240;28;20033;-70
2023/06/09 23:43:52;;;;;;;6.78;3.80;;;;;;;;;;10455951;28;20041;-68
2023/06/09 23:48:52;;;;;;;6.20;3.72;;;;;;;;;;10454450;28;20090;-68
2023/06/09 23:53:53;;;;;;;3.75;3.28;;;;;;;;;;10455773;28;20061;-68
2023/06/09 23:58:53;;;;;;;7.20;3.15;;;;;;;;;;10455904;28;20059;-68
